CJT5 weather

Melita Airport
Melita, Manitoba, Canada

Public forecast

Using degrees Celsius for public forecast. Weather courtesy of forecast.io.

METAR (pilot weather report)

Closest report is Minot Air Force Base, 52.6 nm (97.4 km) SSW. Retrieved 2019/05/22 09:56 UTC (14 minutes ago):

KMIB 220956Z AUTO 02009KT 10SM CLR 11/01 A2973 RMK AO2 SLP072 T01070007 $

TAF (pilot weather forecast)

Closest forecast is Minot Air Force Base, 52.6 nm (97.4 km) SSW. Retrieved 2019/05/22 09:06 UTC (1 hour ago):

TAF KMIB 220900Z 2209/2315 09010G15KT 9999 FEW050 SCT100 QNH2970INS BECMG 2217/2218 05015G20KT 9000 -RA BKN030 OVC050 QNH2972INS BECMG 2223/2300 34010KT 9000 SHRA BKN050 OVC100 QNH2977INS BECMG 2303/2304 12009KT 9999 NSW SCT050 BKN100 QNH2984INS TX18/2222Z TN10/2212Z